createdAt,value
2022-08-03T00:01:36.645Z,36.92
2022-08-03T00:04:05.398Z,37.38
2022-08-03T00:06:36.739Z,37.24
2022-08-03T00:09:05.802Z,37.23
2022-08-03T00:11:33.613Z,37.25
2022-08-03T00:14:01.379Z,37.20
2022-08-03T00:16:28.506Z,37.16
2022-08-03T00:18:55.528Z,37.48
2022-08-03T00:21:22.581Z,37.21
2022-08-03T00:23:52.079Z,37.18
2022-08-03T00:26:22.610Z,37.22
2022-08-03T00:28:50.746Z,37.36
2022-08-03T00:31:27.780Z,37.78
2022-08-03T00:34:05.024Z,37.62
2022-08-03T00:36:33.093Z,37.71
2022-08-03T00:39:00.115Z,38.14
2022-08-03T00:41:27.179Z,37.63
2022-08-03T00:43:54.136Z,37.60
2022-08-03T00:46:22.366Z,37.56
2022-08-03T00:48:53.095Z,37.67
2022-08-03T00:51:21.723Z,37.64
2022-08-03T00:53:50.177Z,37.65
2022-08-03T00:56:17.973Z,37.60
2022-08-03T00:58:46.510Z,37.80
2022-08-03T01:01:14.660Z,37.53
2022-08-03T01:03:41.867Z,37.33
2022-08-03T01:06:21.762Z,37.52
2022-08-03T01:09:09.250Z,37.61
2022-08-03T01:11:59.787Z,36.98
2022-08-03T01:15:00.130Z,37.15
2022-08-03T01:17:43.922Z,37.41
2022-08-03T01:20:16.980Z,37.67
2022-08-03T01:23:29.177Z,38.73
2022-08-03T01:26:25.330Z,37.52
2022-08-03T01:29:21.553Z,38.47
2022-08-03T01:32:53.494Z,37.95
2022-08-03T01:35:13.742Z,37.79
2022-08-03T01:37:59.816Z,38.44
2022-08-03T01:40:29.190Z,39.07
2022-08-03T01:42:59.583Z,37.79
2022-08-03T01:45:27.723Z,38.26
2022-08-03T01:47:56.566Z,38.64
2022-08-03T01:50:29.102Z,38.12
2022-08-03T01:52:58.168Z,38.26
2022-08-03T01:55:28.265Z,38.82
2022-08-03T01:58:04.570Z,38.95
2022-08-03T02:00:34.994Z,39.13
2022-08-03T02:03:05.630Z,38.80
2022-08-03T02:05:33.903Z,39.41
2022-08-03T02:08:03.466Z,39.12
2022-08-03T02:10:35.333Z,38.95
2022-08-03T02:13:06.672Z,38.97
2022-08-03T02:15:35.746Z,39.37
2022-08-03T02:18:05.948Z,38.94
2022-08-03T02:20:37.585Z,39.10
2022-08-03T02:23:06.573Z,39.47
2022-08-03T02:25:39.157Z,39.39
2022-08-03T02:28:17.171Z,39.20
2022-08-03T02:30:51.794Z,39.56
2022-08-03T02:33:32.924Z,39.50
2022-08-03T02:36:02.675Z,39.56
2022-08-03T02:38:34.865Z,39.82
2022-08-03T02:41:07.733Z,40.81
2022-08-03T02:43:41.273Z,40.48
2022-08-03T02:46:32.586Z,39.75
2022-08-03T02:49:40.930Z,40.65
2022-08-03T02:51:52.437Z,40.12
2022-08-03T02:54:21.823Z,40.41
2022-08-03T02:56:49.865Z,41.11
2022-08-03T02:59:19.964Z,40.00
2022-08-03T03:01:47.657Z,41.31
2022-08-03T03:04:16.352Z,40.80
2022-08-03T03:06:44.815Z,40.41
2022-08-03T03:09:14.768Z,41.74
2022-08-03T03:11:44.102Z,40.32
2022-08-03T03:14:13.371Z,41.22
2022-08-03T03:16:41.860Z,41.64
2022-08-03T03:19:15.566Z,41.91
2022-08-03T03:21:44.738Z,41.16
2022-08-03T03:24:12.189Z,40.76
2022-08-03T03:26:42.484Z,41.01
2022-08-03T03:29:09.778Z,40.51
2022-08-03T03:31:37.302Z,41.46
2022-08-03T03:34:05.087Z,41.43
2022-08-03T03:36:33.845Z,41.50
2022-08-03T03:39:15.617Z,41.49
2022-08-03T03:41:43.909Z,42.21
2022-08-03T03:44:10.889Z,41.14
2022-08-03T03:46:39.663Z,41.51
2022-08-03T03:49:07.420Z,41.22
2022-08-03T03:51:34.883Z,41.55
2022-08-03T03:54:06.849Z,41.24
2022-08-03T03:56:33.880Z,41.53
2022-08-03T03:59:00.868Z,40.96
2022-08-03T04:01:28.591Z,41.52
2022-08-03T04:03:55.532Z,41.32
2022-08-03T04:06:41.011Z,41.63
2022-08-03T04:09:29.058Z,41.40
2022-08-03T04:12:00.973Z,42.17
2022-08-03T04:14:35.043Z,41.57
2022-08-03T04:17:09.238Z,41.95
2022-08-03T04:19:46.571Z,41.91
2022-08-03T04:22:22.525Z,43.33
2022-08-03T04:25:01.290Z,42.69
2022-08-03T04:27:36.346Z,42.79
2022-08-03T04:30:06.656Z,42.50
2022-08-03T04:32:35.868Z,42.71
2022-08-03T04:35:03.687Z,43.45
2022-08-03T04:37:41.692Z,42.01
2022-08-03T04:40:13.459Z,42.94
2022-08-03T04:42:42.165Z,43.91
2022-08-03T04:45:13.143Z,42.81
2022-08-03T04:47:41.344Z,42.67
2022-08-03T04:50:12.908Z,43.04
2022-08-03T04:52:41.336Z,43.05
2022-08-03T04:55:08.938Z,44.36
2022-08-03T04:57:36.071Z,43.70
2022-08-03T05:00:05.559Z,43.57
2022-08-03T05:02:32.834Z,43.58
2022-08-03T05:05:00.271Z,43.11
2022-08-03T05:07:35.705Z,43.96
2022-08-03T05:10:15.856Z,44.47
2022-08-03T05:12:48.044Z,43.75
2022-08-03T05:15:15.873Z,44.67
2022-08-03T05:17:43.035Z,44.46
2022-08-03T05:20:10.916Z,44.06
2022-08-03T05:22:37.906Z,44.91
2022-08-03T05:25:05.476Z,44.47
2022-08-03T05:27:32.484Z,44.42
2022-08-03T05:30:30.867Z,45.12
2022-08-03T05:32:46.596Z,43.86
2022-08-03T05:35:57.881Z,46.48
2022-08-03T05:38:02.632Z,44.51
2022-08-03T05:40:30.774Z,45.37
2022-08-03T05:42:58.142Z,44.51
2022-08-03T05:45:28.361Z,46.50
2022-08-03T05:47:55.851Z,44.49
2022-08-03T05:50:23.004Z,44.30
2022-08-03T05:52:50.077Z,44.26
2022-08-03T05:55:17.688Z,44.99
2022-08-03T05:57:47.221Z,45.68
2022-08-03T06:00:17.065Z,46.94
2022-08-03T06:02:44.310Z,46.69
2022-08-03T06:05:11.316Z,46.90
2022-08-03T06:07:38.364Z,45.14
2022-08-03T06:10:37.408Z,47.52
2022-08-03T06:12:53.607Z,45.77
2022-08-03T06:15:20.894Z,46.95
2022-08-03T06:17:50.266Z,46.71
2022-08-03T06:20:19.739Z,47.07
2022-08-03T06:22:50.542Z,47.14
2022-08-03T06:25:19.337Z,46.96
2022-08-03T06:27:48.567Z,46.24
2022-08-03T06:30:21.033Z,46.71
2022-08-03T06:32:51.675Z,45.98
2022-08-03T06:35:19.732Z,45.89
2022-08-03T06:37:49.330Z,45.55
2022-08-03T06:40:24.296Z,44.29
2022-08-03T06:42:51.699Z,44.49
2022-08-03T06:45:18.709Z,44.41
2022-08-03T06:47:45.788Z,44.59
2022-08-03T06:50:16.932Z,44.01
2022-08-03T06:52:45.323Z,43.83
2022-08-03T06:55:12.416Z,43.39
2022-08-03T06:57:39.381Z,41.47
2022-08-03T07:00:12.307Z,42.71
2022-08-03T07:02:40.660Z,42.33
2022-08-03T07:05:09.640Z,42.35
2022-08-03T07:07:37.533Z,42.71
2022-08-03T07:10:06.084Z,42.21
2022-08-03T07:12:34.506Z,41.46
2022-08-03T07:15:05.613Z,41.49
2022-08-03T07:17:36.996Z,41.42
2022-08-03T07:20:08.929Z,41.79
2022-08-03T07:22:36.260Z,41.92
2022-08-03T07:25:03.693Z,41.66
2022-08-03T07:27:30.949Z,41.57
2022-08-03T07:30:00.230Z,41.71
2022-08-03T07:32:31.204Z,41.65
2022-08-03T07:35:00.838Z,41.59
2022-08-03T07:37:29.306Z,41.28
2022-08-03T07:39:56.454Z,39.54
2022-08-03T07:42:23.941Z,40.69
2022-08-03T07:44:50.947Z,40.95
2022-08-03T07:47:25.978Z,41.35
2022-08-03T07:50:03.919Z,40.55
2022-08-03T07:52:49.308Z,41.09
2022-08-03T07:55:18.286Z,40.67
2022-08-03T07:57:45.335Z,40.14
2022-08-03T08:00:19.530Z,40.44
2022-08-03T08:02:46.560Z,40.58
2022-08-03T08:05:13.668Z,40.18
2022-08-03T08:07:40.952Z,40.16
2022-08-03T08:10:10.359Z,39.26
2022-08-03T08:12:39.396Z,39.49
2022-08-03T08:15:08.074Z,39.10
2022-08-03T08:17:49.869Z,39.61
2022-08-03T08:20:22.468Z,39.65
2022-08-03T08:23:03.046Z,38.90
2022-08-03T08:25:32.370Z,39.58
2022-08-03T08:28:30.387Z,39.86
2022-08-03T08:30:51.701Z,39.50
2022-08-03T08:33:22.531Z,38.64
2022-08-03T08:35:53.060Z,38.38
2022-08-03T08:38:20.319Z,38.20
2022-08-03T08:40:49.693Z,37.91
2022-08-03T08:43:16.659Z,37.97
2022-08-03T08:45:44.898Z,38.16
2022-08-03T08:48:13.841Z,36.03
2022-08-03T08:50:41.397Z,37.94
2022-08-03T08:53:18.161Z,38.06
2022-08-03T08:55:58.318Z,37.66
2022-08-03T08:58:34.872Z,37.69
2022-08-03T09:01:02.035Z,36.24
2022-08-03T09:03:30.251Z,35.93
2022-08-03T09:06:00.848Z,35.86
2022-08-03T09:08:33.294Z,35.01
2022-08-03T09:11:00.618Z,35.23
2022-08-03T09:13:29.181Z,35.61
2022-08-03T09:16:18.288Z,35.01
2022-08-03T09:18:54.956Z,33.11
2022-08-03T09:21:32.201Z,32.21
2022-08-03T09:24:04.218Z,34.35
2022-08-03T09:26:35.938Z,34.58
2022-08-03T09:29:13.270Z,33.11
2022-08-03T09:31:46.557Z,33.60
2022-08-03T09:34:16.396Z,33.16
2022-08-03T09:36:50.946Z,31.95
2022-08-03T09:39:41.015Z,30.79
2022-08-03T09:42:15.498Z,32.18
2022-08-03T09:44:51.286Z,32.98
2022-08-03T09:47:37.781Z,32.52
2022-08-03T09:50:12.876Z,31.25
2022-08-03T09:52:49.971Z,32.37
2022-08-03T09:56:05.192Z,32.20
2022-08-03T09:58:10.165Z,31.04
2022-08-03T10:01:01.826Z,32.38
2022-08-03T10:03:32.504Z,32.53
2022-08-03T10:06:22.250Z,33.27
2022-08-03T10:09:10.614Z,33.62
2022-08-03T10:11:42.060Z,33.12
2022-08-03T10:14:19.640Z,32.93
2022-08-03T10:16:48.271Z,31.75
2022-08-03T10:19:16.663Z,32.26
2022-08-03T10:21:56.976Z,30.98
2022-08-03T10:24:28.209Z,31.58
2022-08-03T10:27:11.362Z,30.23
2022-08-03T10:29:45.249Z,31.62
2022-08-03T10:32:38.580Z,30.06
2022-08-03T10:35:18.959Z,30.84
2022-08-03T10:38:26.292Z,30.36
2022-08-03T10:40:58.780Z,30.95
2022-08-03T10:43:44.576Z,30.75
2022-08-03T10:46:11.585Z,30.25
2022-08-03T10:48:39.198Z,30.99
2022-08-03T10:51:07.574Z,30.48
2022-08-03T10:53:44.191Z,30.69
2022-08-03T10:56:53.305Z,32.01
2022-08-03T11:00:04.827Z,31.09
2022-08-03T11:03:18.448Z,31.79
2022-08-03T11:05:49.158Z,31.51
2022-08-03T11:08:28.048Z,30.50
2022-08-03T11:11:23.875Z,29.97
2022-08-03T11:14:11.349Z,29.17
2022-08-03T11:16:41.667Z,29.49
2022-08-03T11:19:15.951Z,29.53
2022-08-03T11:21:51.836Z,29.76
2022-08-03T11:24:37.287Z,29.10
2022-08-03T11:27:25.768Z,28.45
2022-08-03T11:30:09.477Z,29.44
2022-08-03T11:32:40.092Z,30.54
2022-08-03T11:35:24.993Z,29.69
2022-08-03T11:38:03.495Z,31.05
2022-08-03T11:40:48.949Z,30.75
2022-08-03T11:43:21.984Z,30.97
2022-08-03T11:46:29.459Z,29.88
2022-08-03T11:49:10.485Z,29.86
2022-08-03T11:51:40.016Z,29.74
2022-08-03T11:54:07.840Z,30.20
2022-08-03T11:56:47.446Z,30.42
2022-08-03T11:59:20.154Z,29.22
2022-08-03T12:01:51.197Z,29.67
2022-08-03T12:04:18.488Z,29.07
2022-08-03T12:07:01.759Z,29.46
2022-08-03T12:09:28.826Z,29.56
2022-08-03T12:11:59.481Z,28.52
2022-08-03T12:14:49.163Z,28.46
2022-08-03T12:17:17.398Z,29.04
2022-08-03T12:19:45.224Z,29.00
2022-08-03T12:22:12.396Z,28.71
2022-08-03T12:24:46.797Z,28.80
2022-08-03T12:27:25.177Z,27.12
2022-08-03T12:29:58.470Z,26.43
2022-08-03T12:32:28.710Z,25.39
2022-08-03T12:35:00.820Z,24.86
2022-08-03T12:37:29.198Z,25.27
2022-08-03T12:40:05.149Z,25.81
2022-08-03T12:42:38.302Z,25.46
2022-08-03T12:45:31.860Z,25.76
2022-08-03T12:48:01.692Z,25.45
2022-08-03T12:50:35.170Z,24.71
2022-08-03T12:53:05.423Z,26.12
2022-08-03T12:55:57.104Z,25.99
2022-08-03T12:58:35.854Z,25.56
2022-08-03T13:01:09.554Z,24.62
2022-08-03T13:03:50.332Z,25.61
2022-08-03T13:06:28.860Z,26.35
2022-08-03T13:09:05.724Z,26.52
2022-08-03T13:11:57.279Z,25.06
2022-08-03T13:14:20.713Z,26.73
2022-08-03T13:16:50.998Z,25.90
2022-08-03T13:19:18.011Z,24.50
2022-08-03T13:22:01.760Z,24.90
2022-08-03T13:24:33.051Z,25.26
2022-08-03T13:27:00.740Z,25.20
2022-08-03T13:29:47.745Z,25.73
2022-08-03T13:32:14.864Z,24.40
2022-08-03T13:34:41.869Z,24.28
2022-08-03T13:37:19.722Z,25.38
2022-08-03T13:39:57.155Z,25.48
2022-08-03T13:42:32.267Z,25.50
2022-08-03T13:45:00.490Z,25.71
2022-08-03T13:47:28.192Z,25.70
2022-08-03T13:50:01.646Z,24.69
2022-08-03T13:52:32.650Z,24.76
2022-08-03T13:55:00.223Z,26.16
2022-08-03T13:58:11.636Z,24.81
2022-08-03T14:00:27.874Z,25.29
2022-08-03T14:03:12.656Z,24.28
2022-08-03T14:05:42.590Z,25.27
2022-08-03T14:08:10.299Z,24.77
2022-08-03T14:10:40.705Z,25.50
2022-08-03T14:13:10.276Z,25.76
2022-08-03T14:15:38.484Z,25.65
2022-08-03T14:18:15.439Z,25.15
2022-08-03T14:20:50.158Z,25.50
2022-08-03T14:23:21.811Z,25.41
2022-08-03T14:25:51.505Z,25.15
2022-08-03T14:28:22.930Z,25.37
2022-08-03T14:30:55.713Z,24.46
2022-08-03T14:33:23.743Z,25.02
2022-08-03T14:35:51.973Z,24.97
2022-08-03T14:38:20.068Z,24.73
2022-08-03T14:40:48.290Z,24.97
2022-08-03T14:43:18.013Z,25.52
2022-08-03T14:45:45.162Z,24.92
2022-08-03T14:50:32.768Z,24.58
2022-08-03T14:50:59.392Z,25.09
2022-08-03T14:53:26.410Z,25.41
2022-08-03T14:55:53.580Z,24.75
2022-08-03T14:58:25.944Z,24.19
2022-08-03T15:00:54.760Z,23.40
2022-08-03T15:03:24.807Z,24.35
2022-08-03T15:05:55.695Z,24.06
2022-08-03T15:08:25.065Z,24.02
2022-08-03T15:10:53.660Z,23.93
2022-08-03T15:13:21.240Z,23.27
2022-08-03T15:15:50.705Z,23.67
2022-08-03T15:18:17.965Z,23.44
2022-08-03T15:20:46.714Z,23.37
2022-08-03T15:23:15.849Z,23.46
2022-08-03T15:26:28.282Z,23.40
2022-08-03T15:28:52.202Z,24.09
2022-08-03T15:31:25.736Z,24.28
2022-08-03T15:33:53.153Z,23.74
2022-08-03T15:36:20.600Z,24.32
2022-08-03T15:38:47.834Z,23.96
2022-08-03T15:41:15.383Z,24.09
2022-08-03T15:43:42.521Z,24.18
2022-08-03T15:46:30.382Z,24.08
2022-08-03T15:48:57.875Z,24.35
2022-08-03T15:51:24.837Z,23.80
2022-08-03T15:53:51.868Z,24.52
2022-08-03T15:56:19.001Z,24.20
2022-08-03T15:59:04.203Z,23.50
2022-08-03T16:01:33.736Z,23.47
2022-08-03T16:04:00.761Z,22.95
2022-08-03T16:06:29.850Z,23.66
2022-08-03T16:09:04.448Z,24.19
2022-08-03T16:11:31.938Z,24.49
2022-08-03T16:14:13.291Z,24.13
2022-08-03T16:16:45.943Z,24.12
2022-08-03T16:19:13.767Z,24.28
2022-08-03T16:21:48.011Z,24.34
2022-08-03T16:24:19.744Z,24.62
2022-08-03T16:26:52.167Z,24.02
2022-08-03T16:29:22.293Z,24.42
2022-08-03T16:31:51.176Z,24.12
2022-08-03T16:34:24.254Z,24.39
2022-08-03T16:36:52.438Z,24.71
2022-08-03T16:39:19.490Z,24.70
2022-08-03T16:41:54.547Z,24.64
2022-08-03T16:44:30.684Z,24.44
2022-08-03T16:46:59.376Z,23.60
2022-08-03T16:49:55.291Z,24.64
2022-08-03T16:52:13.820Z,23.69
2022-08-03T16:54:44.372Z,24.13
2022-08-03T16:58:00.013Z,23.80
2022-08-03T17:00:08.734Z,24.66
2022-08-03T17:02:37.190Z,24.35
2022-08-03T17:05:05.133Z,24.22
2022-08-03T17:07:32.187Z,24.38
2022-08-03T17:10:00.813Z,24.91
2022-08-03T17:12:28.198Z,24.88
2022-08-03T17:14:57.190Z,25.00
2022-08-03T17:17:56.256Z,24.36
2022-08-03T17:20:21.633Z,25.07
2022-08-03T17:23:15.855Z,24.27
2022-08-03T17:26:02.477Z,24.56
2022-08-03T17:28:52.177Z,25.04
2022-08-03T17:31:31.269Z,25.29
2022-08-03T17:34:02.125Z,25.12
2022-08-03T17:39:30.889Z,25.72
2022-08-03T17:42:39.132Z,25.41
2022-08-03T17:44:57.502Z,25.31
2022-08-03T17:47:29.296Z,25.27
2022-08-03T17:50:24.174Z,25.34
2022-08-03T17:53:15.487Z,25.42
2022-08-03T17:56:38.566Z,24.96
2022-08-03T17:59:51.705Z,25.81
2022-08-03T18:03:12.566Z,26.18
2022-08-03T18:06:11.576Z,25.93
2022-08-03T18:08:43.095Z,25.55
2022-08-03T18:11:16.673Z,26.10
2022-08-03T18:14:16.342Z,25.58
2022-08-03T18:17:01.408Z,25.96
2022-08-03T18:20:03.367Z,26.30
2022-08-03T18:22:21.941Z,26.40
2022-08-03T18:24:52.936Z,26.00
2022-08-03T18:27:21.458Z,26.01
2022-08-03T18:29:50.552Z,26.24
2022-08-03T18:32:18.654Z,26.23
2022-08-03T18:34:53.342Z,26.32
2022-08-03T18:37:25.990Z,26.71
2022-08-03T18:39:57.891Z,26.00
2022-08-03T18:42:26.591Z,26.82
2022-08-03T18:44:55.903Z,26.32
2022-08-03T18:47:55.693Z,26.58
2022-08-03T18:50:49.781Z,26.66
2022-08-03T18:54:03.191Z,27.22
2022-08-03T18:56:52.575Z,27.12
2022-08-03T18:59:46.263Z,27.73
2022-08-03T19:02:35.991Z,27.37
2022-08-03T19:05:10.840Z,27.32
2022-08-03T19:07:43.049Z,27.42
2022-08-03T19:10:36.696Z,27.93
2022-08-03T19:13:18.334Z,27.63
2022-08-03T19:16:02.709Z,27.92
2022-08-03T19:18:31.397Z,28.14
2022-08-03T19:20:59.388Z,28.32
2022-08-03T19:23:26.415Z,28.08
2022-08-03T19:26:02.913Z,28.69
2022-08-03T19:28:31.313Z,28.79
2022-08-03T19:31:02.817Z,28.43
2022-08-03T19:33:56.014Z,28.44
2022-08-03T19:36:29.802Z,28.70
2022-08-03T19:38:57.873Z,29.43
2022-08-03T19:41:41.531Z,29.18
2022-08-03T19:44:20.272Z,29.11
2022-08-03T19:46:54.506Z,29.20
2022-08-03T19:49:57.763Z,29.28
2022-08-03T19:52:20.704Z,29.27
2022-08-03T19:54:53.899Z,29.20
2022-08-03T19:57:25.341Z,29.60
2022-08-03T19:59:54.516Z,29.87
2022-08-03T20:02:27.176Z,30.03
2022-08-03T20:04:56.990Z,29.65
2022-08-03T20:07:26.108Z,30.03
2022-08-03T20:09:56.729Z,29.57
2022-08-03T20:12:27.634Z,29.53
2022-08-03T20:15:00.789Z,29.60
2022-08-03T20:20:24.799Z,29.78
2022-08-03T20:22:57.751Z,29.65
2022-08-03T20:25:38.247Z,30.09
2022-08-03T20:28:17.035Z,29.90
2022-08-03T20:30:46.435Z,29.99
2022-08-03T20:33:18.571Z,29.87
2022-08-03T20:35:49.194Z,29.71
2022-08-03T20:38:27.230Z,30.35
2022-08-03T20:40:54.743Z,30.19
2022-08-03T20:43:21.813Z,30.24
2022-08-03T20:45:58.392Z,30.21
2022-08-03T20:48:28.560Z,30.27
2022-08-03T20:50:56.461Z,30.16
2022-08-03T20:53:57.124Z,30.04
2022-08-03T20:56:11.152Z,30.20
2022-08-03T20:58:42.536Z,30.22
2022-08-03T21:01:17.991Z,29.95
2022-08-03T21:03:55.838Z,29.89
2022-08-03T21:06:28.685Z,30.04
2022-08-03T21:09:05.281Z,30.28
2022-08-03T21:11:49.215Z,30.43
2022-08-03T21:13:09.724Z,30.29
2022-08-03T21:14:29.907Z,30.74
2022-08-03T21:16:58.713Z,30.08
2022-08-03T21:19:30.124Z,30.09
2022-08-03T21:21:59.268Z,30.24
2022-08-03T21:24:28.997Z,30.50
2022-08-03T21:26:59.955Z,30.07
2022-08-03T21:29:28.853Z,30.61
2022-08-03T21:31:57.564Z,30.25
2022-08-03T21:34:26.330Z,30.56
2022-08-03T21:36:53.370Z,30.45
2022-08-03T21:39:20.463Z,30.21
2022-08-03T21:41:47.618Z,31.01
2022-08-03T21:44:17.928Z,30.90
2022-08-03T21:46:53.960Z,30.88
2022-08-03T21:49:52.064Z,30.90
2022-08-03T21:52:09.914Z,30.60
2022-08-03T21:54:43.134Z,31.36
2022-08-03T21:57:27.563Z,31.09
2022-08-03T22:00:01.268Z,31.08
2022-08-03T22:02:32.138Z,31.14
2022-08-03T22:04:59.562Z,31.15
2022-08-03T22:07:29.007Z,30.94
2022-08-03T22:09:58.249Z,31.00
2022-08-03T22:12:28.232Z,31.29
2022-08-03T22:15:01.391Z,31.18
2022-08-03T22:17:54.796Z,31.17
2022-08-03T22:20:20.950Z,31.22
2022-08-03T22:22:56.018Z,31.57
2022-08-03T22:25:30.566Z,31.54
2022-08-03T22:28:05.983Z,31.43
2022-08-03T22:30:34.160Z,30.98
2022-08-03T22:33:05.152Z,31.56
2022-08-03T22:35:48.206Z,31.13
2022-08-03T22:38:17.908Z,31.32
2022-08-03T22:40:48.204Z,31.73
2022-08-03T22:43:15.384Z,31.46
2022-08-03T22:46:09.742Z,31.68
2022-08-03T22:48:40.798Z,31.77
2022-08-03T22:51:09.484Z,34.33
2022-08-03T22:53:36.804Z,36.75
2022-08-03T22:56:04.540Z,37.76
2022-08-03T22:58:31.598Z,37.93
2022-08-03T23:01:09.181Z,37.98
2022-08-03T23:04:01.248Z,37.39
2022-08-03T23:06:33.823Z,37.24
2022-08-03T23:09:11.823Z,36.84
2022-08-03T23:11:45.991Z,36.82
2022-08-03T23:14:16.341Z,36.94
2022-08-03T23:16:44.479Z,37.22
2022-08-03T23:19:17.297Z,36.33
2022-08-03T23:22:02.317Z,36.35
2022-08-03T23:24:33.902Z,35.80
2022-08-03T23:27:08.110Z,35.71
2022-08-03T23:29:37.954Z,35.70
2022-08-03T23:32:06.796Z,35.77
2022-08-03T23:34:55.473Z,35.12
2022-08-03T23:37:24.569Z,35.36
2022-08-03T23:39:54.415Z,35.30
2022-08-03T23:42:23.096Z,35.20
2022-08-03T23:45:05.671Z,35.03
2022-08-03T23:47:46.725Z,34.86
2022-08-03T23:50:15.155Z,35.29
2022-08-03T23:53:02.925Z,35.37
2022-08-03T23:55:54.086Z,35.27
2022-08-03T23:58:48.592Z,35.42
